Ana Sayfa
METAR-TAF:

METAR-TAF

Havaalanları :

Suffolk Executive Airport

Suffolk, Virginia, Amerika Birleşik Devletleri

Enlem: 36-40-56N, Boylam: 076-36-07W, yükseklik: 22 m

Güncel hava durumu gözlemi

Rapor saat 19:15 UTC de 31 dakika önce yapıldı.
Rüzgar doğu/kuzeydoğudan 10 kt
Sıcaklık 11°C
Nem 76%
Basınç 1011 hPa
Görüş mesafesi: 16.1 km
4200 ft yükseklikte parçalı bulutlu
9000 ft yükseklikte parçalı çok bulutlu
10000 ft yükseklikte çok bulutlu

METAR: KSFQ 311915Z AUTO 07010KT 10SM SCT042 BKN090 OVC100 11/07 A2986 RMK AO2 T01100071

Saat: 15:46 (19:46 UTC)


TAF: eksik

4.000'den fazla havaalanı için hava durumu gözlemleri ve tahminleri (METAR ve TAF raporları).

Kullanılabilir istasyonlar harita üzerinde sarı ve kırmızı noktalarla gösterilir.

İstasyonun adını görmek için fareyi noktanın üzerinde gezdirin.

Sonrasında hava gözlem ve tahminlerini görmek için tıklayın.

Haritayı değiştirmek için: yaklaştırmak için siyah artı işaretli yeşil düğmeye ve uzaklaştırmak için de eksi işaretli düğmeye hızla tıklayın; bitişik haritalar için yeşil okları kullanın.


METAR-TAF: